Detalii statie TRANSAVIA REDIU [0000197C]

Toti senzorii

Date Temperatura solului [C]Precipitatii [mm]Voltaj baterie [mV]Leaf Wetness [Min]HC Air temperature [C]HC Relative humidity [%]Punctul de roua [C]
medieminmaxsumaultimatimpmedieminmaxmediemediemin
2018-02-23 13:00:00 0.2 0.1 0.5 0.4 6600 -0.19 -0.33 -0.07 100 0 -0.2
2018-02-23 14:00:00 0.4 0.4 0.6 0 6610 0.23 -0.04 0.61 100 0.2 0
2018-02-23 15:00:00 0.7 0.6 0.9 0 6590 0.67 0.35 0.93 100 0.6 0.3
2018-02-23 16:00:00 1.1 0.9 1.3 0 6542 1.4 0.79 1.95 100 1.3 0.7
2018-02-23 17:00:00 1.3 1.2 1.5 0 6502 1.89 1.84 1.99 100 1.8 1.8
2018-02-23 18:00:00 1.4 1.3 1.5 0 6484 1.74 1.56 1.84 100 1.7 1.5
2018-02-23 19:00:00 1.4 1.4 1.6 0 6474 1.26 0.88 1.53 100 1.2 0.8
2018-02-23 20:00:00 1.4 1.4 1.5 0 6464 0.59 0.44 0.85 100 0.5 0.4
2018-02-23 21:00:00 1.3 1.2 1.4 0 6454 0.22 -0.06 0.41 100 0.2 0
2018-02-23 22:00:00 1.2 1.1 1.4 0 6444 -0.17 -0.23 -0.1 100 0 -0.1
2018-02-23 23:00:00 1.1 1.1 1.2 0 6444 -0.33 -0.52 -0.26 100 -0.1 -0.4
2018-02-24 00:00:00 1 0.9 1.2 0 6444 -0.47 -0.53 -0.43 100 -0.3 -0.4
2018-02-24 01:00:00 0.9 0.9 1.2 0 6434 -0.63 -0.86 -0.49 100 -0.4 -0.7
2018-02-24 02:00:00 0.8 0.8 1 0 6434 -0.99 -1.07 -0.9 100 -0.8 -0.9
2018-02-24 03:00:00 0.8 0.7 1 0 6424 -1.32 -1.55 -1.1 100 -1.1 -1.4
2018-02-24 04:00:00 0.7 0.7 0.9 0 6424 -1.93 -2.14 -1.64 100 -1.8 -2
2018-02-24 05:00:00 0.7 0.6 0.8 0 6416 -2.13 -2.33 -2.02 100 -2 -2.2
2018-02-24 06:00:00 0.6 0.5 0.7 0 6416 -3.02 -3.34 -2.37 100 -2.8 -3.2
2018-02-24 07:00:00 0.5 0.4 0.7 0 6406 -3.41 -3.52 -3.25 100 -3.2 -3.4
2018-02-24 08:00:00 0.4 0.3 0.6 0 6406 -4.29 -4.85 -3.67 100 -4.1 -4.7
2018-02-24 09:00:00 0.3 0.3 0.5 0 6416 -4.61 -4.74 -4.47 100 -4.4 -4.6
2018-02-24 10:00:00 0.3 0.2 0.5 0 6424 -4.47 -4.59 -4.38 100 -4.3 -4.4
2018-02-24 11:00:00 0.2 0.2 0.3 0 6434 -4.63 -4.81 -4.41 100 -4.5 -4.7
2018-02-24 12:00:00 0.2 0.2 0.3 0 6512 -3.34 -4.2 -2.74 100 -3.2 -4.1
2018-02-24 13:00:00 0.3 0.2 0.4 0 6718 -2.68 -2.9 -2.53 100 -2.5 -2.8
2018-02-24 14:00:00 0.2 0.2 0.3 0 6776 -2.29 -2.52 -1.88 100 -2.1 -2.4
2018-02-24 15:00:00 0.3 0.2 0.4 0 6738 -2.11 -2.31 -1.94 100 -1.9 -2.2
2018-02-24 16:00:00 0.2 0.2 0.4 0 6698 -2.54 -3.03 -1.99 100 -2.3 -2.9
2018-02-24 17:00:00 0.3 0.3 0.3 0 6668 -3.88 -4.25 -3.25 100 -3.7 -4.1
2018-02-24 18:00:00 0.2 0.1 0.4 0 6582 -4.64 -4.92 -4.22 100 -4.5 -4.8
2018-02-24 19:00:00 0.2 0.1 0.3 0 6552 -4.81 -5.03 -4.57 100 -4.6 -4.9
2018-02-24 20:00:00 0 0 0.2 0 6532 -4.89 -5.33 -4.64 100 -4.7 -5.2
2018-02-24 21:00:00 0 0 0.1 0 6522 -5.8 -6.38 -5.39 100 -5.6 -6.2
2018-02-24 22:00:00 0 -0.2 0.1 0 6512 -6.75 -6.9 -6.52 100 -6.6 -6.8
2018-02-24 23:00:00 -0.1 -0.3 0 0 6512 -7.03 -7.39 -6.82 100 -6.8 -7.2
2018-02-25 00:00:00 -0.1 -0.3 -0.1 0 6512 -7.91 -8.18 -7.52 100 -7.7 -8
2018-02-25 01:00:00 -0.2 -0.4 -0.2 0 6502 -8.33 -8.69 -7.86 100 -8.1 -8.5
2018-02-25 02:00:00 -0.2 -0.5 -0.2 0 6494 -9.12 -9.7 -8.64 100 -8.9 -9.6
2018-02-25 03:00:00 -0.3 -0.4 -0.2 0 6484 -9.98 -10.17 -9.61 100 -9.8 -10
2018-02-25 04:00:00 -0.3 -0.4 -0.2 0 6484 -10.56 -10.84 -10.32 100 -10.4 -10.7
2018-02-25 05:00:00 -0.4 -0.5 -0.3 0 6474 -10.61 -10.81 -10.44 100 -10.4 -10.7
2018-02-25 06:00:00 -0.4 -0.6 -0.3 0 6484 -10.54 -10.68 -10.44 100 -10.3 -10.5
2018-02-25 07:00:00 -0.4 -0.6 -0.4 0 6474 -10.75 -10.89 -10.54 100 -10.5 -10.7
2018-02-25 08:00:00 -0.5 -0.6 -0.4 0 6474 -10.12 -10.38 -10.01 100 -9.9 -10.2
2018-02-25 09:00:00 -0.5 -0.7 -0.5 0 6522 -9.83 -9.98 -9.7 100 -9.7 -9.8
2018-02-25 10:00:00 -0.5 -0.6 -0.5 0 6650 -9.24 -9.7 -7.93 100 -9.1 -9.6
2018-02-25 11:00:00 -0.5 -0.6 -0.4 0 6660 -8.55 -8.88 -7.79 100 -8.3 -8.7
2018-02-25 12:00:00 -0.5 -0.7 -0.4 0 6708 -7.65 -8.2 -6.9 100 -7.5 -8.1